Time;durP1;ratioP1;P1;durP2;ratioP2;P2;SDS_P1;SDS_P2;PMS_P1;PMS_P2;Temp;Humidity;BMP_temperature;BMP_pressure;BME280_temperature;BME280_humidity;BME280_pressure;Samples;Min_cycle;Max_cycle;Signal;HPM_P1;HPM_P2
2022/10/25 00:02:16;;;;;;;0.03;0.03;;;13.60;99.90;12.80;97103.00;;;;5060266;28;20276;-72
2022/10/25 00:04:47;;;;;;;0.00;0.00;;;13.60;99.90;12.80;97095.00;;;;5065500;28;20281;-73
2022/10/25 00:07:15;;;;;;;0.00;0.00;;;13.60;99.90;12.80;97101.00;;;;5070461;28;20525;-72
2022/10/25 00:09:43;;;;;;;0.10;0.10;;;13.60;99.90;12.80;97100.00;;;;5062838;28;20211;-73
2022/10/25 00:12:11;;;;;;;0.10;0.10;;;13.60;99.90;12.80;97098.00;;;;5052929;28;20613;-72
2022/10/25 00:14:39;;;;;;;0.10;0.10;;;13.60;99.90;12.80;97090.00;;;;5070953;28;20193;-73
2022/10/25 00:17:08;;;;;;;0.10;0.10;;;13.60;99.90;12.80;97096.00;;;;5059617;28;20246;-73
2022/10/25 00:19:36;;;;;;;0.10;0.10;;;13.60;99.90;12.80;97045.00;;;;5059515;28;20320;-72
2022/10/25 00:22:06;;;;;;;0.10;0.10;;;13.60;99.90;12.80;97101.00;;;;5052114;28;20226;-73
2022/10/25 00:24:34;;;;;;;0.00;0.00;;;13.60;99.90;12.80;97091.00;;;;5062775;28;20198;-72
2022/10/25 00:27:02;;;;;;;0.00;0.00;;;13.60;99.90;12.80;97092.00;;;;5058016;28;20198;-72
2022/10/25 00:29:31;;;;;;;0.10;0.10;;;13.60;99.90;12.90;97105.00;;;;5071263;28;20217;-73
2022/10/25 00:31:59;;;;;;;0.10;0.10;;;13.70;99.90;12.90;97100.00;;;;5071437;28;20615;-73
2022/10/25 00:34:27;;;;;;;0.10;0.10;;;13.60;99.90;12.90;97096.00;;;;5062563;28;20205;-73
2022/10/25 00:36:55;;;;;;;0.00;0.00;;;13.70;99.90;12.80;97098.00;;;;5062590;28;20226;-74
2022/10/25 00:39:24;;;;;;;0.10;0.10;;;13.60;99.90;12.80;97096.00;;;;5061165;28;20214;-74
2022/10/25 00:41:52;;;;;;;0.10;0.10;;;13.60;99.90;12.70;97099.00;;;;5064957;28;20214;-74
2022/10/25 00:44:50;;;;;;;0.10;0.10;;;13.50;99.90;12.70;97064.00;;;;5062541;28;20199;-73
2022/10/25 00:47:34;;;;;;;0.10;0.10;;;13.50;99.90;12.70;97110.00;;;;5059020;28;20198;-74
2022/10/25 00:50:14;;;;;;;0.10;0.10;;;13.50;99.90;12.70;97107.00;;;;5061990;28;20194;-74
2022/10/25 00:52:48;;;;;;;0.00;0.00;;;13.40;99.90;12.60;97099.00;;;;5055511;28;20193;-74
2022/10/25 00:55:21;;;;;;;0.10;0.10;;;13.40;99.90;12.60;97098.00;;;;5059734;28;20190;-74
2022/10/25 00:57:56;;;;;;;0.00;0.00;;;13.40;99.90;12.50;97096.00;;;;5061044;28;20221;-74
2022/10/25 01:00:24;;;;;;;0.00;0.00;;;13.30;99.90;12.50;97088.00;;;;5053454;28;20252;-74
2022/10/25 01:02:53;;;;;;;0.03;0.03;;;13.30;99.90;12.50;97088.00;;;;5068340;28;20244;-73
2022/10/25 01:05:26;;;;;;;0.10;0.10;;;13.30;99.90;12.50;97022.00;;;;5060488;28;20756;-74
2022/10/25 01:07:55;;;;;;;0.10;0.10;;;13.30;99.90;12.50;97085.00;;;;5069544;28;20634;-73
2022/10/25 01:10:25;;;;;;;0.00;0.00;;;13.30;99.90;12.40;97070.00;;;;5071449;28;20190;-73
2022/10/25 01:12:54;;;;;;;0.00;0.00;;;13.30;99.90;12.40;97076.00;;;;5061021;28;20202;-73
2022/10/25 01:15:28;;;;;;;0.00;0.00;;;13.20;99.90;12.40;97079.00;;;;5059616;28;20548;-73
2022/10/25 01:18:11;;;;;;;0.10;0.10;;;13.20;99.90;12.50;97090.00;;;;5060628;28;20700;-73
2022/10/25 01:21:29;;;;;;;0.10;0.10;;;13.30;99.90;12.40;97086.00;;;;5055073;28;20248;-73
2022/10/25 01:24:38;;;;;;;0.00;0.00;;;13.20;99.90;12.40;97083.00;;;;5052738;28;20225;-72
2022/10/25 01:27:54;;;;;;;0.00;0.00;;;13.20;99.90;12.40;97077.00;;;;5060731;28;20244;-73
2022/10/25 01:30:58;;;;;;;0.10;0.10;;;13.30;99.90;12.50;97069.00;;;;5067159;28;20722;-73
2022/10/25 01:33:34;;;;;;;0.05;0.05;;;13.30;99.90;12.40;97071.00;;;;5065869;28;20264;-73
2022/10/25 01:36:14;;;;;;;0.10;0.10;;;13.30;99.90;12.40;97070.00;;;;5045015;28;20196;-73
2022/10/25 01:38:51;;;;;;;0.10;0.10;;;13.20;99.90;12.40;97092.00;;;;5068172;28;20263;-73
2022/10/25 01:41:29;;;;;;;0.10;0.10;;;13.20;99.90;12.40;97078.00;;;;5073832;28;20221;-73
2022/10/25 01:44:16;;;;;;;0.00;0.00;;;13.20;99.90;12.30;97069.00;;;;5062639;28;20579;-74
2022/10/25 01:46:53;;;;;;;0.10;0.10;;;13.20;99.90;12.30;97067.00;;;;5062902;28;20202;-73
2022/10/25 01:49:31;;;;;;;0.10;0.10;;;13.20;99.90;12.30;97072.00;;;;5060685;28;20622;-73
2022/10/25 01:51:59;;;;;;;0.10;0.10;;;13.20;99.90;12.30;97063.00;;;;5053531;28;20202;-73
2022/10/25 01:54:27;;;;;;;0.00;0.00;;;13.10;99.90;12.30;97072.00;;;;5062670;28;20193;-73
2022/10/25 01:57:16;;;;;;;0.00;0.00;;;13.10;99.90;12.20;97063.00;;;;5056500;28;20616;-72
2022/10/25 02:00:07;;;;;;;0.10;0.10;;;13.00;99.90;12.10;97088.00;;;;5069107;28;20202;-73
2022/10/25 02:03:06;;;;;;;0.10;0.10;;;12.90;99.90;12.10;97083.00;;;;5070281;28;20556;-73
2022/10/25 02:05:48;;;;;;;0.10;0.10;;;12.90;99.90;12.00;97069.00;;;;5060560;28;20267;-73
2022/10/25 02:08:32;;;;;;;0.10;0.10;;;12.90;99.90;12.00;97085.00;;;;5058111;28;20221;-73
2022/10/25 02:11:08;;;;;;;0.00;0.00;;;12.80;99.90;12.00;97041.00;;;;5070554;28;20189;-73
2022/10/25 02:13:48;;;;;;;0.10;0.10;;;12.80;99.90;11.90;97057.00;;;;5061363;28;20206;-73
2022/10/25 02:16:23;;;;;;;0.03;0.03;;;12.70;99.90;12.00;97072.00;;;;5066153;28;20194;-74
2022/10/25 02:18:59;;;;;;;0.00;0.00;;;12.80;99.90;11.90;97006.00;;;;5090080;28;20221;-73
2022/10/25 02:21:29;;;;;;;0.00;0.00;;;12.70;99.90;11.90;97080.00;;;;5094240;28;20212;-74
2022/10/25 02:24:01;;;;;;;0.00;0.00;;;12.80;99.90;12.00;97080.00;;;;5060494;28;20187;-73
2022/10/25 02:26:29;;;;;;;0.10;0.10;;;12.80;99.90;12.10;97078.00;;;;5058906;28;20206;-74
2022/10/25 02:28:58;;;;;;;0.10;0.10;;;12.90;99.90;12.10;97086.00;;;;5065437;28;20294;-73
2022/10/25 02:31:28;;;;;;;0.10;0.10;;;12.90;99.90;12.20;97083.00;;;;5056711;28;20217;-73
2022/10/25 02:33:58;;;;;;;0.00;0.00;;;13.00;99.90;12.20;97095.00;;;;5071402;28;20566;-72
2022/10/25 02:36:26;;;;;;;0.00;0.00;;;13.00;99.90;12.20;97103.00;;;;5058763;28;20669;-72
2022/10/25 02:38:56;;;;;;;0.00;0.00;;;13.00;99.90;12.10;97101.00;;;;5069804;28;20224;-72
2022/10/25 02:41:25;;;;;;;0.10;0.10;;;13.00;99.90;12.30;97100.00;;;;5053603;28;20739;-72
2022/10/25 02:43:53;;;;;;;0.10;0.10;;;13.10;99.90;12.30;97071.00;;;;5064319;28;20619;-73
2022/10/25 02:46:23;;;;;;;0.10;0.10;;;13.20;99.90;12.30;97107.00;;;;5065347;28;20197;-73
2022/10/25 02:48:52;;;;;;;0.00;0.00;;;13.20;99.90;12.40;97108.00;;;;5064524;28;20218;-72
2022/10/25 02:51:21;;;;;;;0.00;0.00;;;13.20;99.90;12.40;97104.00;;;;5067434;28;20190;-73
2022/10/25 02:53:50;;;;;;;0.10;0.10;;;13.20;99.90;12.50;97099.00;;;;5071130;28;20204;-73
2022/10/25 02:56:21;;;;;;;0.10;0.10;;;13.30;99.90;12.50;97093.00;;;;5067170;28;20236;-73
2022/10/25 02:58:51;;;;;;;0.00;0.00;;;13.30;99.90;12.50;97101.00;;;;5069746;28;20221;-74
2022/10/25 03:01:20;;;;;;;0.03;0.03;;;13.40;99.90;12.50;97110.00;;;;5073361;28;20190;-74
2022/10/25 03:03:48;;;;;;;0.10;0.10;;;13.40;99.90;12.60;97121.00;;;;5071426;28;20235;-74
2022/10/25 03:06:17;;;;;;;0.00;0.00;;;13.40;99.90;12.60;97119.00;;;;5058876;28;20190;-74
2022/10/25 03:08:47;;;;;;;0.00;0.00;;;13.40;99.90;12.60;97120.00;;;;5072738;28;20616;-74
2022/10/25 03:11:17;;;;;;;0.00;0.00;;;13.40;99.90;12.60;97127.00;;;;5069375;28;20219;-74
2022/10/25 03:13:45;;;;;;;0.00;0.00;;;13.40;99.90;12.60;97129.00;;;;5059121;28;20674;-73
2022/10/25 03:16:13;;;;;;;0.00;0.00;;;13.40;99.90;12.60;97122.00;;;;5056025;28;20206;-75
2022/10/25 03:18:41;;;;;;;0.10;0.10;;;13.40;99.90;12.70;97140.00;;;;5064159;28;20222;-73
2022/10/25 03:21:09;;;;;;;0.10;0.10;;;13.50;99.90;12.70;97113.00;;;;5073131;28;20263;-73
2022/10/25 03:23:38;;;;;;;0.00;0.00;;;13.50;99.90;12.70;97139.00;;;;5070940;28;20291;-73
2022/10/25 03:26:07;;;;;;;0.00;0.00;;;13.50;99.90;12.70;97148.00;;;;5066179;28;20206;-76
2022/10/25 03:28:35;;;;;;;0.10;0.10;;;13.50;99.90;12.70;97145.00;;;;5042592;28;20223;-73
2022/10/25 03:31:11;;;;;;;0.10;0.10;;;13.50;99.90;12.70;97091.00;;;;5052576;28;20677;-73
2022/10/25 03:33:40;;;;;;;0.00;0.00;;;13.50;99.90;12.70;97141.00;;;;5052558;28;20232;-74
2022/10/25 03:36:09;;;;;;;0.00;0.00;;;13.50;99.90;12.70;97157.00;;;;5053636;28;20198;-73
2022/10/25 03:38:37;;;;;;;0.00;0.00;;;13.50;99.90;12.80;97144.00;;;;5064091;28;20572;-73
2022/10/25 03:41:06;;;;;;;0.03;0.03;;;13.60;99.90;12.70;97143.00;;;;5059203;28;20280;-73
2022/10/25 03:43:35;;;;;;;0.00;0.00;;;13.60;99.90;12.70;97102.00;;;;5066782;28;20210;-74
2022/10/25 03:46:03;;;;;;;0.10;0.10;;;13.60;99.90;12.80;97152.00;;;;5053162;28;20608;-74
2022/10/25 03:48:31;;;;;;;0.00;0.00;;;13.60;99.90;12.80;97156.00;;;;5065047;28;20217;-74
2022/10/25 03:50:59;;;;;;;0.10;0.10;;;13.60;99.90;12.70;97156.00;;;;5060767;28;20195;-78
2022/10/25 03:53:27;;;;;;;0.00;0.00;;;13.60;99.90;12.70;97159.00;;;;5068491;28;20217;-78
2022/10/25 03:55:55;;;;;;;0.00;0.00;;;13.50;99.90;12.80;97163.00;;;;5072122;28;20357;-78
2022/10/25 03:58:25;;;;;;;0.00;0.00;;;13.60;99.90;12.80;97160.00;;;;5061330;28;20217;-77
2022/10/25 04:00:53;;;;;;;0.00;0.00;;;13.60;99.90;12.80;97155.00;;;;5064577;28;20213;-77
2022/10/25 04:03:21;;;;;;;0.00;0.00;;;13.60;99.90;12.80;97156.00;;;;5062898;28;20232;-76
2022/10/25 04:05:49;;;;;;;0.00;0.00;;;13.60;99.90;12.80;97163.00;;;;5035749;28;20511;-77
2022/10/25 04:08:17;;;;;;;0.10;0.10;;;13.60;99.90;12.70;97168.00;;;;5061472;28;20668;-77
2022/10/25 04:10:46;;;;;;;0.10;0.10;;;13.60;99.90;12.80;97177.00;;;;5063129;28;20198;-78
2022/10/25 04:13:15;;;;;;;0.00;0.00;;;13.60;99.90;12.80;97177.00;;;;5066983;28;20559;-76
2022/10/25 04:15:45;;;;;;;0.10;0.10;;;13.60;99.90;12.80;97164.00;;;;5060376;28;20375;-78
2022/10/25 04:18:13;;;;;;;0.05;0.05;;;13.60;99.90;12.80;97175.00;;;;5059178;28;20288;-77
2022/10/25 04:20:41;;;;;;;0.00;0.00;;;13.60;99.90;12.80;97169.00;;;;5052684;28;20194;-77
2022/10/25 04:23:09;;;;;;;0.00;0.00;;;13.60;99.90;12.80;97169.00;;;;5064570;28;20222;-77
2022/10/25 04:25:37;;;;;;;0.00;0.00;;;13.60;99.90;12.80;97179.00;;;;5060601;28;20741;-77
2022/10/25 04:28:06;;;;;;;0.10;0.10;;;13.60;99.90;12.80;97158.00;;;;5055646;28;20221;-78
2022/10/25 04:30:34;;;;;;;0.00;0.00;;;13.60;99.90;12.70;97162.00;;;;5072117;28;20205;-78
2022/10/25 04:33:07;;;;;;;0.00;0.00;;;13.50;99.90;12.70;97174.00;;;;5059997;28;20653;-79
2022/10/25 04:35:38;;;;;;;0.00;0.00;;;13.50;99.90;12.60;97168.00;;;;5084212;28;20197;-78
2022/10/25 04:38:06;;;;;;;0.00;0.00;;;13.40;99.90;12.60;97171.00;;;;5064813;28;20218;-78
2022/10/25 04:40:34;;;;;;;0.03;0.03;;;13.40;99.90;12.60;97171.00;;;;5070387;28;20197;-78
2022/10/25 04:43:02;;;;;;;0.00;0.00;;;13.40;99.90;12.60;97174.00;;;;5066983;28;20267;-77
2022/10/25 04:45:30;;;;;;;0.00;0.00;;;13.40;99.90;12.60;97182.00;;;;5060064;28;20194;-82
2022/10/25 04:47:59;;;;;;;0.10;0.10;;;13.40;99.90;12.60;97183.00;;;;5054552;28;20266;-77
2022/10/25 04:50:29;;;;;;;0.10;0.10;;;13.40;99.90;12.60;97183.00;;;;5067855;28;20571;-77
2022/10/25 04:52:57;;;;;;;0.10;0.10;;;13.30;99.90;12.50;97184.00;;;;5064741;28;20206;-78
2022/10/25 04:55:25;;;;;;;0.00;0.00;;;13.30;99.90;12.50;97187.00;;;;5068520;28;20232;-78
2022/10/25 04:57:53;;;;;;;0.10;0.10;;;13.30;99.90;12.50;97182.00;;;;5066294;28;20279;-81
2022/10/25 05:00:21;;;;;;;0.10;0.10;;;13.30;99.90;12.50;97179.00;;;;5065616;28;20272;-79
2022/10/25 05:02:52;;;;;;;0.00;0.00;;;13.30;99.90;12.50;97157.00;;;;5070727;28;20611;-80
2022/10/25 05:05:23;;;;;;;0.00;0.00;;;13.30;99.90;12.40;97171.00;;;;5059948;28;20276;-78
2022/10/25 05:07:52;;;;;;;0.00;0.00;;;13.30;99.90;12.40;97186.00;;;;5070757;28;20225;-78
2022/10/25 05:10:20;;;;;;;0.00;0.00;;;13.20;99.90;12.30;97177.00;;;;5075026;28;20193;-77
2022/10/25 05:12:48;;;;;;;0.00;0.00;;;13.20;99.90;12.30;97185.00;;;;5067716;28;20229;-77
2022/10/25 05:15:17;;;;;;;0.00;0.00;;;13.20;99.90;12.30;97182.00;;;;5067923;28;20247;-77
2022/10/25 05:17:45;;;;;;;0.00;0.00;;;13.10;99.90;12.30;97183.00;;;;5064610;28;20226;-77
2022/10/25 05:20:13;;;;;;;0.10;0.10;;;13.10;99.90;12.30;97185.00;;;;5072064;28;20190;-78
2022/10/25 05:22:41;;;;;;;0.00;0.00;;;13.10;99.90;12.30;97186.00;;;;5051474;28;20207;-77
2022/10/25 05:25:11;;;;;;;0.10;0.10;;;13.10;99.90;12.30;97198.00;;;;5033606;28;20283;-78
2022/10/25 05:27:39;;;;;;;0.10;0.10;;;13.10;99.90;12.30;97213.00;;;;5072039;28;20301;-77
2022/10/25 05:30:09;;;;;;;0.10;0.10;;;13.10;99.90;12.30;97216.00;;;;5074125;28;20206;-78
2022/10/25 05:32:37;;;;;;;0.10;0.10;;;13.10;99.90;12.30;97206.00;;;;5047424;28;20210;-76
2022/10/25 05:35:06;;;;;;;0.10;0.10;;;13.20;99.90;12.40;97217.00;;;;5057682;28;20202;-78
2022/10/25 05:37:34;;;;;;;0.00;0.00;;;13.20;99.90;12.30;97219.00;;;;5068801;28;20213;-78
2022/10/25 05:40:03;;;;;;;0.10;0.10;;;13.20;99.90;12.40;97214.00;;;;5073020;28;20206;-78
2022/10/25 05:42:33;;;;;;;0.00;0.00;;;13.20;99.90;12.40;97217.00;;;;5073229;28;20228;-78
2022/10/25 05:45:01;;;;;;;0.10;0.10;;;13.20;99.90;12.40;97218.00;;;;5067975;28;20297;-79
2022/10/25 05:47:29;;;;;;;0.10;0.10;;;13.20;99.90;12.50;97155.00;;;;5082337;28;20209;-78
2022/10/25 05:49:57;;;;;;;0.00;0.00;;;13.30;99.90;12.40;97222.00;;;;5070130;28;20190;-78
2022/10/25 05:52:25;;;;;;;0.10;0.10;;;13.20;99.90;12.40;97232.00;;;;5072702;28;20243;-78
2022/10/25 05:54:53;;;;;;;0.10;0.10;;;13.20;99.90;12.40;97227.00;;;;5079883;28;20206;-77
2022/10/25 05:57:21;;;;;;;0.10;0.10;;;13.30;99.90;12.40;97228.00;;;;5079640;28;20201;-78
2022/10/25 05:59:51;;;;;;;0.00;0.00;;;13.30;99.90;12.40;97242.00;;;;5079469;28;20214;-78
2022/10/25 06:02:19;;;;;;;0.00;0.00;;;13.30;99.90;12.40;97245.00;;;;5077850;28;20198;-79
2022/10/25 06:04:50;;;;;;;0.00;0.00;;;13.30;99.90;12.40;97248.00;;;;5076635;28;20614;-76
2022/10/25 06:07:19;;;;;;;0.03;0.03;;;13.30;99.90;12.40;97249.00;;;;5076868;28;20284;-78
2022/10/25 06:09:47;;;;;;;0.00;0.00;;;13.30;99.90;12.50;97262.00;;;;5084419;28;20197;-76
2022/10/25 06:12:15;;;;;;;0.10;0.10;;;13.30;99.90;12.60;97259.00;;;;5082382;28;20194;-78
2022/10/25 06:14:43;;;;;;;0.00;0.00;;;13.40;99.90;12.50;97269.00;;;;5062866;28;20210;-77
2022/10/25 06:17:13;;;;;;;0.10;0.10;;;13.30;99.90;12.50;97267.00;;;;5077437;28;20190;-77
2022/10/25 06:19:41;;;;;;;0.00;0.00;;;13.30;99.90;12.50;97267.00;;;;5076409;28;20205;-78
2022/10/25 06:22:09;;;;;;;0.00;0.00;;;13.30;99.90;12.50;97284.00;;;;5079822;28;20197;-78
2022/10/25 06:24:37;;;;;;;0.00;0.00;;;13.30;99.90;12.40;97278.00;;;;5081630;28;20225;-77
2022/10/25 06:27:06;;;;;;;0.00;0.00;;;13.30;99.90;12.40;97284.00;;;;5079843;28;20205;-78
2022/10/25 06:29:34;;;;;;;0.00;0.00;;;13.20;99.90;12.50;97259.00;;;;5044333;28;20628;-77
2022/10/25 06:32:02;;;;;;;0.03;0.03;;;13.30;99.90;12.50;97277.00;;;;5057512;28;20252;-78
2022/10/25 06:34:32;;;;;;;0.00;0.00;;;13.30;99.90;12.50;97285.00;;;;5060626;28;20187;-77
2022/10/25 06:37:00;;;;;;;0.10;0.10;;;13.30;99.90;12.50;97296.00;;;;5057643;28;20692;-77
2022/10/25 06:39:28;;;;;;;0.00;0.00;;;13.30;99.90;12.50;97289.00;;;;5037737;28;20754;-74
2022/10/25 06:41:56;;;;;;;0.10;0.10;;;13.30;99.90;12.50;97282.00;;;;5053477;28;20190;-73
2022/10/25 06:44:24;;;;;;;0.00;0.00;;;13.30;99.90;12.50;97281.00;;;;5054039;28;20253;-74
2022/10/25 06:46:53;;;;;;;0.00;0.00;;;13.30;99.90;12.50;97286.00;;;;5053580;28;20206;-74
2022/10/25 06:49:42;;;;;;;0.00;0.00;;;13.30;99.90;12.50;97297.00;;;;5034662;28;20313;-73
2022/10/25 06:52:10;;;;;;;0.00;0.00;;;13.30;99.90;12.50;97297.00;;;;5053340;28;20225;-74
2022/10/25 06:54:39;;;;;;;0.10;0.10;;;13.30;99.90;12.50;97288.00;;;;5054143;28;20217;-73
2022/10/25 06:57:07;;;;;;;0.00;0.00;;;13.30;99.90;12.60;97293.00;;;;5053437;28;20190;-73
2022/10/25 06:59:35;;;;;;;0.00;0.00;;;13.40;99.90;12.50;97286.00;;;;5052633;28;20245;-74
2022/10/25 07:02:03;;;;;;;0.00;0.00;;;13.30;99.90;12.50;97301.00;;;;5053035;28;20195;-73
2022/10/25 07:04:31;;;;;;;0.10;0.10;;;13.30;99.90;12.60;97311.00;;;;5053456;28;20218;-74
2022/10/25 07:07:01;;;;;;;0.00;0.00;;;13.40;99.90;12.60;97304.00;;;;5053633;28;20190;-74
2022/10/25 07:09:29;;;;;;;0.00;0.00;;;13.40;99.90;12.60;97306.00;;;;5052556;28;20275;-74
2022/10/25 07:11:57;;;;;;;0.10;0.10;;;13.40;99.90;12.60;97324.00;;;;5052723;28;20191;-73
2022/10/25 07:14:25;;;;;;;0.00;0.00;;;13.40;99.90;12.60;97327.00;;;;5052846;28;20332;-74
2022/10/25 07:16:53;;;;;;;0.00;0.00;;;13.40;99.90;12.60;97314.00;;;;5051636;28;20209;-73
2022/10/25 07:19:22;;;;;;;0.10;0.10;;;13.40;99.90;12.60;97315.00;;;;5051945;28;20237;-74
2022/10/25 07:21:51;;;;;;;0.10;0.10;;;13.30;99.90;12.60;97321.00;;;;5052864;28;20202;-74
2022/10/25 07:24:20;;;;;;;0.10;0.10;;;13.30;99.90;12.60;97315.00;;;;5063883;28;20221;-74
2022/10/25 07:26:48;;;;;;;0.10;0.10;;;13.40;99.90;12.60;97329.00;;;;5072820;28;20202;-74
2022/10/25 07:29:17;;;;;;;0.00;0.00;;;13.40;99.90;12.60;97323.00;;;;5074305;28;20202;-74
2022/10/25 07:31:45;;;;;;;0.00;0.00;;;13.40;99.90;12.70;97320.00;;;;5057094;28;20225;-73
2022/10/25 07:34:14;;;;;;;0.10;0.10;;;13.40;99.90;12.70;97328.00;;;;5052561;28;20245;-74
2022/10/25 07:36:42;;;;;;;0.00;0.00;;;13.50;99.90;12.70;97315.00;;;;5052717;28;20196;-74
2022/10/25 07:39:11;;;;;;;0.08;0.08;;;13.50;99.90;12.80;97317.00;;;;5051890;28;20214;-74
2022/10/25 07:41:40;;;;;;;0.00;0.00;;;13.60;99.90;12.80;97318.00;;;;5054207;28;20248;-73
2022/10/25 07:44:08;;;;;;;0.10;0.10;;;13.60;99.90;12.80;97315.00;;;;5070668;28;20202;-74
2022/10/25 07:46:43;;;;;;;0.00;0.00;;;13.60;99.90;12.70;97316.00;;;;5078799;28;20577;-74
2022/10/25 07:49:12;;;;;;;0.10;0.10;;;13.60;99.90;12.80;97331.00;;;;5089494;28;20209;-74
2022/10/25 07:51:40;;;;;;;0.10;0.10;;;13.60;99.90;12.90;97333.00;;;;5073324;28;20223;-74
2022/10/25 07:54:08;;;;;;;0.00;0.00;;;13.70;99.90;13.00;97332.00;;;;5072051;28;20194;-74
2022/10/25 07:56:36;;;;;;;0.10;0.10;;;13.80;99.90;13.10;97338.00;;;;5072284;28;20614;-74
2022/10/25 07:59:05;;;;;;;0.00;0.00;;;13.80;99.90;13.20;97341.00;;;;5071407;28;20217;-74
2022/10/25 08:01:35;;;;;;;0.10;0.10;;;13.90;99.90;13.20;97335.00;;;;5074738;28;20240;-74
2022/10/25 08:04:03;;;;;;;0.00;0.00;;;14.00;99.90;13.30;97343.00;;;;5078891;28;20221;-74
2022/10/25 08:06:31;;;;;;;0.00;0.00;;;14.00;99.90;13.30;97347.00;;;;5077261;28;20221;-74
2022/10/25 08:08:59;;;;;;;0.10;0.10;;;14.00;99.90;13.30;97352.00;;;;5076714;28;20271;-74
2022/10/25 08:11:42;;;;;;;0.00;0.00;;;14.10;99.90;13.20;97348.00;;;;5080045;28;20660;-74
2022/10/25 08:14:11;;;;;;;0.00;0.00;;;14.00;99.90;13.20;97348.00;;;;5071656;28;20198;-74
2022/10/25 08:16:39;;;;;;;0.00;0.00;;;14.00;99.90;13.30;97345.00;;;;5079169;28;20209;-74
2022/10/25 08:19:07;;;;;;;0.03;0.03;;;14.00;99.90;13.30;97342.00;;;;5079304;28;20253;-74
2022/10/25 08:21:35;;;;;;;0.00;0.00;;;14.10;99.90;13.30;97343.00;;;;5079942;28;20198;-74
2022/10/25 08:24:04;;;;;;;0.10;0.10;;;14.10;99.90;13.30;97342.00;;;;5062503;28;20288;-74
2022/10/25 08:26:32;;;;;;;0.00;0.00;;;14.00;99.90;13.30;97344.00;;;;5061293;28;20305;-74
2022/10/25 08:29:04;;;;;;;0.10;0.10;;;14.00;99.90;13.30;97367.00;;;;5065487;28;20249;-73
2022/10/25 08:31:35;;;;;;;0.05;0.05;;;14.10;99.90;13.30;97345.00;;;;5067657;28;20194;-74
2022/10/25 08:34:04;;;;;;;0.00;0.00;;;14.10;99.90;13.30;97355.00;;;;5061667;28;20240;-74
2022/10/25 08:36:32;;;;;;;0.00;0.00;;;14.10;99.90;13.40;97355.00;;;;5053568;28;20194;-74
2022/10/25 08:39:00;;;;;;;0.00;0.00;;;14.10;99.90;13.40;97348.00;;;;5051250;28;20788;-74
2022/10/25 08:41:42;;;;;;;0.00;0.00;;;14.20;99.90;13.40;97347.00;;;;5051769;28;20186;-74
2022/10/25 08:44:26;;;;;;;0.00;0.00;;;14.20;99.90;13.50;97353.00;;;;5060716;28;20276;-74
2022/10/25 08:47:02;;;;;;;0.00;0.00;;;14.30;99.90;13.60;97356.00;;;;5055256;28;20213;-74
2022/10/25 08:49:46;;;;;;;0.00;0.00;;;14.40;99.90;13.80;97353.00;;;;5071284;28;20209;-74
2022/10/25 08:52:25;;;;;;;0.00;0.00;;;14.50;99.90;13.80;97346.00;;;;5053491;28;20275;-74
2022/10/25 08:54:56;;;;;;;0.03;0.03;;;14.60;99.90;13.90;97355.00;;;;5071809;28;20197;-74
2022/10/25 08:57:33;;;;;;;0.00;0.00;;;14.60;99.90;14.00;97354.00;;;;5070902;28;20185;-74
2022/10/25 09:00:09;;;;;;;0.00;0.00;;;14.70;99.90;14.10;97340.00;;;;5071105;28;20251;-74
2022/10/25 09:02:47;;;;;;;0.00;0.00;;;14.80;99.90;14.10;97353.00;;;;5071598;28;20246;-74
2022/10/25 09:05:31;;;;;;;0.00;0.00;;;14.80;99.90;14.30;97353.00;;;;5071482;28;20260;-74
2022/10/25 09:08:17;;;;;;;0.10;0.10;;;15.00;99.90;14.30;97356.00;;;;5070775;28;20209;-74
2022/10/25 09:10:55;;;;;;;0.10;0.10;;;15.00;99.90;14.40;97361.00;;;;5071442;28;20189;-74
2022/10/25 09:13:38;;;;;;;0.00;0.00;;;15.00;99.90;14.40;97371.00;;;;5072298;28;20197;-74
2022/10/25 09:16:16;;;;;;;0.10;0.10;;;15.10;99.90;14.30;97347.00;;;;5075240;28;20254;-74
2022/10/25 09:18:51;;;;;;;0.10;0.10;;;15.00;99.90;14.40;97353.00;;;;5074993;28;20626;-74
2022/10/25 09:21:27;;;;;;;0.10;0.10;;;15.10;99.90;14.60;97349.00;;;;5075451;28;20509;-74
2022/10/25 09:24:01;;;;;;;0.00;0.00;;;15.20;99.90;14.60;97361.00;;;;5075330;28;20185;-74
2022/10/25 09:26:42;;;;;;;0.00;0.00;;;15.30;99.90;14.60;97358.00;;;;5075441;28;20220;-74
2022/10/25 09:29:23;;;;;;;0.00;0.00;;;15.30;99.90;14.40;97364.00;;;;5074429;28;20237;-74
2022/10/25 09:31:56;;;;;;;0.00;0.00;;;15.20;99.90;14.40;97371.00;;;;5075458;28;20201;-74
2022/10/25 09:34:32;;;;;;;0.00;0.00;;;15.10;99.90;14.20;97374.00;;;;5075111;28;20250;-74
2022/10/25 09:37:13;;;;;;;0.10;0.10;;;15.00;99.90;14.20;97374.00;;;;5075328;28;20270;-73
2022/10/25 09:39:46;;;;;;;0.10;0.10;;;14.90;99.90;14.20;97374.00;;;;5056663;28;20221;-73
2022/10/25 09:42:21;;;;;;;0.10;0.10;;;14.90;99.90;14.10;97380.00;;;;5074815;28;20209;-73
2022/10/25 09:44:56;;;;;;;0.10;0.10;;;14.80;99.90;14.00;97383.00;;;;5075248;28;20668;-74
2022/10/25 09:47:38;;;;;;;0.00;0.00;;;14.80;99.90;14.00;97387.00;;;;5074012;28;20796;-74
2022/10/25 09:50:18;;;;;;;0.00;0.00;;;14.80;99.90;14.00;97388.00;;;;5075042;28;20189;-74
2022/10/25 09:53:04;;;;;;;0.00;0.00;;;14.80;99.90;14.10;97415.00;;;;5074745;28;20185;-74
2022/10/25 09:55:39;;;;;;;0.00;0.00;;;14.80;99.90;14.10;97402.00;;;;5075253;28;20190;-74
2022/10/25 09:58:17;;;;;;;0.10;0.10;;;14.80;99.90;14.10;97405.00;;;;5073854;28;20242;-74
2022/10/25 10:00:46;;;;;;;0.00;0.00;;;14.80;99.90;14.00;97404.00;;;;5074883;28;20196;-74
2022/10/25 10:03:15;;;;;;;0.00;0.00;;;14.80;99.90;14.10;97341.00;;;;5075007;28;20588;-74
2022/10/25 10:05:52;;;;;;;0.00;0.00;;;14.80;99.90;14.00;97343.00;;;;5074630;28;20225;-74
2022/10/25 10:08:21;;;;;;;0.00;0.00;;;14.70;99.90;14.00;97390.00;;;;5074186;28;20217;-74
2022/10/25 10:10:51;;;;;;;0.00;0.00;;;14.70;99.90;14.00;97389.00;;;;5074052;28;20582;-74
2022/10/25 10:13:28;;;;;;;0.05;0.05;;;14.80;99.90;13.90;97385.00;;;;5074455;28;20190;-74
2022/10/25 10:15:59;;;;;;;0.00;0.00;;;14.70;99.90;14.00;97393.00;;;;5074483;28;20189;-74
2022/10/25 10:18:30;;;;;;;0.00;0.00;;;14.70;99.90;14.00;97352.00;;;;5074047;28;20209;-74
2022/10/25 10:21:06;;;;;;;0.10;0.10;;;14.80;99.90;14.10;97355.00;;;;5074308;28;20197;-74
2022/10/25 10:23:45;;;;;;;0.00;0.00;;;14.90;99.90;14.20;97343.00;;;;5074837;28;20600;-74
2022/10/25 10:26:22;;;;;;;0.00;0.00;;;14.90;99.90;14.00;97410.00;;;;5073100;28;20586;-74
2022/10/25 10:29:04;;;;;;;0.00;0.00;;;14.80;99.90;14.10;97376.00;;;;5074941;28;20209;-74
2022/10/25 10:31:38;;;;;;;0.00;0.00;;;14.80;99.90;14.10;97411.00;;;;5074471;28;20201;-74
2022/10/25 10:34:26;;;;;;;0.00;0.00;;;14.80;99.90;14.10;97408.00;;;;5074190;28;20197;-74
2022/10/25 10:37:24;;;;;;;0.00;0.00;;;14.80;99.90;14.00;97402.00;;;;5073874;28;20664;-74
2022/10/25 10:39:54;;;;;;;0.10;0.10;;;14.80;99.90;14.10;97402.00;;;;5000859;28;20201;-74
2022/10/25 10:42:32;;;;;;;0.00;0.00;;;14.70;99.90;14.00;97407.00;;;;5074089;28;20205;-74
2022/10/25 10:45:16;;;;;;;0.10;0.10;;;14.80;99.90;14.20;97396.00;;;;5073629;28;20216;-74
2022/10/25 10:47:55;;;;;;;0.10;0.10;;;14.90;99.90;14.30;97396.00;;;;5072718;28;20226;-74
2022/10/25 10:50:31;;;;;;;0.00;0.00;;;15.00;99.90;14.50;97396.00;;;;5072451;28;20200;-74
2022/10/25 10:53:04;;;;;;;0.00;0.00;;;15.20;99.90;14.60;97401.00;;;;5073881;28;20699;-74
2022/10/25 10:55:36;;;;;;;0.10;0.10;;;15.30;99.90;14.80;97390.00;;;;5073696;28;20216;-74
2022/10/25 10:58:12;;;;;;;0.00;0.00;;;15.40;99.90;14.80;97394.00;;;;5072631;28;20229;-74
2022/10/25 11:00:50;;;;;;;0.10;0.10;;;15.50;99.90;14.90;97387.00;;;;5074697;28;20200;-74
2022/10/25 11:03:48;;;;;;;0.00;0.00;;;15.50;99.90;14.90;97401.00;;;;5074977;28;20236;-74
2022/10/25 11:06:32;;;;;;;0.00;0.00;;;15.50;99.90;14.70;97407.00;;;;5063964;28;20217;-74
2022/10/25 11:09:19;;;;;;;0.00;0.00;;;15.40;99.90;14.60;97402.00;;;;5075145;28;20334;-74
2022/10/25 11:12:07;;;;;;;0.10;0.10;;;15.30;99.90;14.50;97402.00;;;;5073920;28;20189;-74
2022/10/25 11:14:35;;;;;;;0.10;0.10;;;15.30;99.90;14.40;97415.00;;;;5074700;28;20186;-74
2022/10/25 11:17:14;;;;;;;0.00;0.00;;;15.10;99.90;14.50;97405.00;;;;5073344;28;20197;-74
2022/10/25 11:20:17;;;;;;;0.00;0.00;;;15.10;99.90;14.30;97401.00;;;;5072786;28;20229;-74